• Join FlightAware (Why Join?)
  • Login
  • US Flag 
12:46PM EST


 

Airport Tracker/Info


-or-


 

Live Flight TrackerFlight Track Log ✈ VRT51 ✈ 09-Aug-2013 ✈ KTYQ - KBNA

Flight Track Log - Related Links

Times and Time Zones

All times are in EDT time to prevent confusion due to time zone crossing. See the VRT51 flight status page for this flight to view local times or setup timezone preferences in your user account.

Time Position Orientation Groundspeed Altitude Reporting Facility
EDT Latitude Longitude Course Direction KTS MPH feet Rate Location/Type
11:10PM 40.0000 -86.2500 226° Southwest 175 201 2,000  Level Indianapolis TRACON
11:12PM 39.9500 -86.3167 226° Southwest 252 290 5,600 2,880 Climbing Indianapolis TRACON
11:13PM 39.8978 -86.3717 219° Southwest 247 284 8,600 3,000 Climbing Indianapolis Center
11:14PM 39.8217 -86.4036 198° South 295 339 11,600 3,060 Climbing Indianapolis Center
11:15PM 39.7261 -86.3850 171° South 348 400 14,900 3,060 Climbing Indianapolis Center
11:16PM 39.6214 -86.3656 172° South 386 444 17,900 3,660 Climbing Indianapolis Center
11:17PM 39.4978 -86.3425 172° South 380 437 22,400 2,940 Climbing Indianapolis Center
11:18PM 39.4003 -86.3244 172° South 360 414 24,000 1,260 Climbing Indianapolis Center
11:19PM 39.2894 -86.3261 181° South 399 459 25,000 960 Climbing Indianapolis Center
11:20PM 39.1797 -86.3661 196° South 410 472 26,000 480 Climbing Indianapolis Center
11:21PM 39.0661 -86.4022 194° South 420 483 26,000  Level Indianapolis Center
11:22PM 38.9539 -86.4378 194° South 417 480 26,000  Level Indianapolis Center
11:23PM 38.8464 -86.4717 194° South 416 479 26,000  Level Indianapolis Center
11:24PM 38.7339 -86.5081 194° South 415 478 26,000  Level Indianapolis Center
11:25PM 38.6208 -86.5439 194° South 414 476 26,000  Level Indianapolis Center
11:26PM 38.5075 -86.5797 194° South 416 479 26,000  Level Indianapolis Center
11:27PM 38.3892 -86.6161 194° South 428 493 26,000  Level Indianapolis Center
11:28PM 38.2444 -86.6614 194° South 438 504 26,000  Level Indianapolis Center
11:29PM 38.1242 -86.6989 194° South 438 504 26,000  Level Indianapolis Center
11:30PM 38.0033 -86.7358 194° South 440 506 26,000 -720 Level Indianapolis Center
11:31PM 37.8872 -86.7728 194° South 428 493 24,600 -1,440 Descending Indianapolis Center
11:32PM 37.7747 -86.8081 194° South 415 478 23,100 -840 Descending Indianapolis Center
11:33PM 37.6636 -86.8428 194° South 411 473 23,000 -60 Descending Indianapolis Center
11:34PM 37.5525 -86.8778 194° South 408 470 23,000  Level Indianapolis Center
11:35PM 37.4358 -86.9114 193° South 411 473 23,000  Level Indianapolis Center
11:36PM 37.3222 -86.9472 194° South 416 479 23,000 -300 Level Indianapolis Center
11:37PM 37.2097 -86.9808 193° South 413 475 22,400 -840 Descending Indianapolis Center
11:38PM 37.1158 -87.0089 193° South 418 481 21,400 -1,500 Descending Memphis Center
11:39PM 37.0125 -87.0394 193° South 402 463 19,800 -1,920 Descending Memphis Center
11:40PM 36.8989 -87.0753 194° South 407 468 17,600 -5,100 Descending Memphis Center
11:41PM 36.7906 -87.0822 183° South 405 466 9,000 -2,880 Descending Memphis Center
11:42PM 36.6828 -87.0192 155° Southeast 383 441 11,900 480 Climbing Memphis Center
11:43PM 36.5914 -86.9611 153° Southeast 372 428 10,000 -1,560 Descending Memphis Center
11:44PM 36.5194 -86.9150 153° Southeast 330 380 8,800 -1,620 Descending Memphis Center
11:45PM 36.4650 -86.8347 130° Southeast 301 346 6,800 -1,440 Descending Memphis Center
11:46PM 36.4128 -86.7544 129° Southeast 295 339 6,000 -840 Descending Memphis Center
11:47PM 36.3669 -86.6869 130° Southeast 295 339 5,200 -1,260 Descending Memphis Center
11:48PM 36.3111 -86.6328 142° Southeast 275 316 3,500 -1,200 Descending Memphis Center
11:49PM 36.2483 -86.6256 175° South 234 269 2,900 -780 Descending Memphis Center
11:50PM 36.2067 -86.6300 185° South 184 212 2,000 -780 Descending Memphis Center
11:51PM 36.1739 -86.6442 199° South 139 160 1,400 -600 Descending Memphis Center
11:52PM 36.1386 -86.6561 195° South 126 145 800 -360 Descending Memphis Center
11:53PM 36.1078 -86.6703 200° South 126 145 700 -120 Descending Memphis Center
11:55PM 36.1171 -86.6664 208° Southwest  Level FlightAware Approximate
12:02AM 36.1167 -86.6667 208° Southwest  Level FlightAware Approximate
12:03AM 36.1245 -86.6782 208° Southwest  Level Estimated
12:04AM 36.1245 -86.6782 208° Southwest  Level Estimated
12:05AM 36.1245 -86.6782 208° Southwest  Level Estimated
12:06AM 36.1245 -86.6782 208° Southwest  Level Estimated
12:07AM 36.1245 -86.6782 208° Southwest  Level Estimated
12:08AM 36.1245 -86.6782 208° Southwest  Level Estimated